createdAt,value
2022-10-22T00:03:45.634Z,1012.6
2022-10-22T00:18:42.102Z,1012.4
2022-10-22T00:33:38.578Z,1012.2
2022-10-22T00:48:34.763Z,1012.3
2022-10-22T01:03:31.121Z,1012.1
2022-10-22T01:18:27.423Z,1012.2
2022-10-22T01:33:23.113Z,1012.2
2022-10-22T01:48:19.842Z,1012.1
2022-10-22T02:03:17.403Z,1012.2
2022-10-22T02:18:11.793Z,1012.1
2022-10-22T02:33:08.101Z,1012.2
2022-10-22T02:48:04.425Z,1012.1
2022-10-22T03:03:01.069Z,1012.3
2022-10-22T03:17:57.333Z,1012.4
2022-10-22T03:32:53.333Z,1012.4
2022-10-22T03:47:49.522Z,1012.5
2022-10-22T04:02:45.539Z,1012.8
2022-10-22T04:17:42.303Z,1013
2022-10-22T04:32:38.334Z,1013.1
2022-10-22T04:47:34.551Z,1013
2022-10-22T05:02:30.912Z,1013.1
2022-10-22T05:17:26.621Z,1013.3
2022-10-22T05:32:22.972Z,1013.3
2022-10-22T05:47:18.675Z,1013.5
2022-10-22T06:02:14.881Z,1013.8
2022-10-22T06:17:11.227Z,1014
2022-10-22T06:32:06.707Z,1014.3
2022-10-22T06:47:02.945Z,1014.5
2022-10-22T07:01:59.336Z,1014.7
2022-10-22T07:16:55.458Z,1014.8
2022-10-22T07:31:51.958Z,1015.1
2022-10-22T07:46:48.990Z,1015.4
2022-10-22T08:01:44.852Z,1015.5
2022-10-22T08:16:41.390Z,1015.7
2022-10-22T08:31:37.791Z,1015.8
2022-10-22T08:46:34.205Z,1015.8
2022-10-22T09:01:30.805Z,1016
2022-10-22T09:16:27.534Z,1016.2
2022-10-22T09:31:24.041Z,1016.3
2022-10-22T09:46:20.497Z,1016.4
2022-10-22T10:01:16.917Z,1016.4
2022-10-22T10:16:13.451Z,1016.4
2022-10-22T10:31:10.643Z,1016.5
2022-10-22T10:46:07.068Z,1016.6
2022-10-22T11:01:02.797Z,1016.6
2022-10-22T11:15:58.915Z,1016.7
2022-10-22T11:30:55.346Z,1016.6
2022-10-22T11:45:51.953Z,1016.7
2022-10-22T12:00:48.068Z,1016.7
2022-10-22T12:15:44.082Z,1016.7
2022-10-22T12:30:40.518Z,1016.7
2022-10-22T12:45:36.559Z,1016.5
2022-10-22T13:00:32.529Z,1016.5
2022-10-22T13:15:29.313Z,1016.5
2022-10-22T13:30:25.712Z,1016.4
2022-10-22T13:45:22.055Z,1016.3
2022-10-22T14:00:18.451Z,1016.3
2022-10-22T14:15:15.034Z,1016.4
2022-10-22T14:30:11.843Z,1016.4
2022-10-22T14:45:08.062Z,1016.4
2022-10-22T15:00:04.322Z,1016.4
2022-10-22T15:15:00.123Z,1016.5
2022-10-22T15:29:56.156Z,1016.5
2022-10-22T15:44:52.010Z,1016.6
2022-10-22T15:59:48.162Z,1016.6
2022-10-22T16:14:43.981Z,1016.7
2022-10-22T16:29:40.171Z,1016.8
2022-10-22T16:44:36.281Z,1016.8
2022-10-22T16:59:32.391Z,1016.9
2022-10-22T17:14:28.131Z,1017.1
2022-10-22T17:29:24.220Z,1017.2
2022-10-22T17:44:19.847Z,1017.3
2022-10-22T17:59:16.497Z,1017.3
2022-10-22T18:14:11.790Z,1017.4
2022-10-22T18:29:07.868Z,1017.5
2022-10-22T18:44:03.958Z,1017.4
2022-10-22T18:59:00.280Z,1017.4
2022-10-22T19:13:56.265Z,1017.3
2022-10-22T19:28:52.095Z,1017.4
2022-10-22T19:43:48.212Z,1017.4
2022-10-22T19:58:44.253Z,1017.5
2022-10-22T20:13:40.765Z,1017.5
2022-10-22T20:28:37.153Z,1017.6
2022-10-22T20:43:33.220Z,1017.5
2022-10-22T20:58:29.557Z,1017.4
2022-10-22T22:13:10.227Z,1017.3
2022-10-22T22:28:06.062Z,1017.2
2022-10-22T22:43:03.035Z,1017.1
2022-10-22T22:57:58.214Z,1017.2
2022-10-22T23:12:54.033Z,1017
2022-10-22T23:27:50.138Z,1017.1
2022-10-22T23:42:45.994Z,1017
2022-10-22T23:57:42.172Z,1016.9
